Time;durP1;ratioP1;P1;durP2;ratioP2;P2;SDS_P1;SDS_P2;PMS_P1;PMS_P2;Temp;Humidity;BMP_temperature;BMP_pressure;BME280_temperature;BME280_humidity;BME280_pressure;Samples;Min_cycle;Max_cycle;Signal;HPM_P1;HPM_P2
2021/05/27 00:00:53;;;;;;;6.45;3.40;;;12.50;99.90;;;;;;4991961;28;20046;-72
2021/05/27 00:03:18;;;;;;;4.60;3.50;;;12.40;99.90;;;;;;4992534;28;20030;-71
2021/05/27 00:05:44;;;;;;;7.28;3.92;;;12.40;99.90;;;;;;4994275;28;20081;-71
2021/05/27 00:08:10;;;;;;;5.38;3.47;;;12.40;99.90;;;;;;4992545;28;20457;-71
2021/05/27 00:10:36;;;;;;;5.43;2.97;;;12.20;99.90;;;;;;4992005;28;20042;-71
2021/05/27 00:13:02;;;;;;;3.40;2.90;;;12.20;99.90;;;;;;4992506;28;20042;-71
2021/05/27 00:15:30;;;;;;;3.03;2.53;;;12.20;99.90;;;;;;4992391;28;20023;-71
2021/05/27 00:17:56;;;;;;;3.27;2.60;;;12.20;99.90;;;;;;4977019;28;20460;-71
2021/05/27 00:20:22;;;;;;;3.25;2.40;;;12.10;99.90;;;;;;4992057;28;20069;-70
2021/05/27 00:22:48;;;;;;;2.53;2.17;;;12.20;99.90;;;;;;4992305;28;20144;-71
2021/05/27 00:25:14;;;;;;;5.75;2.75;;;12.10;99.90;;;;;;4992122;28;20070;-70
2021/05/27 00:27:41;;;;;;;4.15;2.55;;;12.10;99.90;;;;;;4974595;28;20117;-71
2021/05/27 00:30:08;;;;;;;4.20;1.98;;;12.20;99.90;;;;;;4992013;28;20535;-71
2021/05/27 00:32:33;;;;;;;5.00;2.15;;;12.30;99.90;;;;;;4993529;28;20055;-72
2021/05/27 00:34:59;;;;;;;3.47;2.00;;;12.20;99.90;;;;;;4991984;28;20157;-72
2021/05/27 00:37:25;;;;;;;2.22;1.90;;;12.30;99.90;;;;;;4991806;28;20137;-71
2021/05/27 00:39:51;;;;;;;3.63;1.95;;;12.30;99.90;;;;;;4974691;28;20054;-70
2021/05/27 00:42:16;;;;;;;2.20;2.00;;;12.30;99.90;;;;;;4991875;28;20027;-71
2021/05/27 00:44:43;;;;;;;4.05;1.75;;;12.20;99.90;;;;;;4993559;28;20384;-70
2021/05/27 00:47:11;;;;;;;4.70;1.98;;;12.10;99.90;;;;;;4991856;28;20034;-71
2021/05/27 00:49:36;;;;;;;2.53;1.58;;;12.20;99.90;;;;;;4974534;28;20113;-72
2021/05/27 00:52:03;;;;;;;1.95;1.52;;;12.30;99.90;;;;;;4991738;28;20117;-72
2021/05/27 00:54:29;;;;;;;1.95;1.65;;;12.20;99.90;;;;;;4991299;28;20030;-69
2021/05/27 00:56:55;;;;;;;3.53;1.55;;;12.30;99.90;;;;;;4993304;28;20567;-71
2021/05/27 00:59:21;;;;;;;2.25;1.60;;;12.20;99.90;;;;;;4974408;28;20117;-71
2021/05/27 01:01:52;;;;;;;3.00;2.13;;;12.30;99.90;;;;;;4990847;28;20125;-71
2021/05/27 01:04:21;;;;;;;2.10;1.60;;;12.10;99.90;;;;;;4991162;28;20038;-72
2021/05/27 01:06:46;;;;;;;5.90;1.65;;;12.20;99.90;;;;;;4974020;28;20049;-72
2021/05/27 01:09:12;;;;;;;5.13;1.77;;;12.30;99.90;;;;;;4991242;28;20030;-72
2021/05/27 01:11:38;;;;;;;2.63;1.80;;;12.30;99.90;;;;;;4992907;28;20022;-71
2021/05/27 01:14:13;;;;;;;1.80;1.65;;;12.30;99.90;;;;;;4973783;28;20531;-72
2021/05/27 01:16:39;;;;;;;3.00;1.63;;;12.20;99.90;;;;;;4973665;28;20476;-72
2021/05/27 01:19:05;;;;;;;1.83;1.30;;;12.30;99.90;;;;;;4991051;28;20042;-72
2021/05/27 01:21:32;;;;;;;4.40;1.60;;;12.30;99.90;;;;;;4991202;28;20054;-71
2021/05/27 01:23:59;;;;;;;2.45;1.50;;;12.20;99.90;;;;;;4975028;28;20118;-71
2021/05/27 01:26:24;;;;;;;5.95;1.17;;;12.20;99.90;;;;;;4990766;28;20046;-72
2021/05/27 01:28:50;;;;;;;2.08;1.50;;;12.20;99.90;;;;;;4990718;28;20042;-71
2021/05/27 01:31:16;;;;;;;2.38;1.48;;;12.10;99.90;;;;;;4990609;28;20555;-72
2021/05/27 01:33:42;;;;;;;2.60;1.60;;;12.10;99.90;;;;;;4990867;28;20034;-71
2021/05/27 01:36:08;;;;;;;2.60;1.50;;;12.20;99.90;;;;;;5001433;28;20044;-71
2021/05/27 01:38:34;;;;;;;2.20;1.30;;;12.20;99.90;;;;;;4994582;28;20420;-71
2021/05/27 01:41:02;;;;;;;4.78;1.60;;;12.20;99.90;;;;;;5010151;28;20042;-70
2021/05/27 01:43:28;;;;;;;;;;;12.20;99.90;;;;;;4992929;28;20349;-72
2021/05/27 01:45:54;;;;;;;;;;;12.20;99.90;;;;;;4993406;28;20349;-71
2021/05/27 01:48:19;;;;;;;;;;;12.30;99.90;;;;;;5010458;28;20264;-72
2021/05/27 01:50:46;;;;;;;;;;;12.30;99.90;;;;;;4994967;28;19936;-72
2021/05/27 01:53:12;;;;;;;;;;;12.40;99.90;;;;;;5010531;28;19923;-72
2021/05/27 01:55:42;;;;;;;;;;;12.40;99.90;;;;;;4992980;28;19964;-71
2021/05/27 01:58:08;;;;;;;;;;;12.20;99.90;;;;;;5010633;28;19920;-71
2021/05/27 02:00:34;;;;;;;;;;;12.10;99.90;;;;;;5010262;28;19910;-72
2021/05/27 02:03:00;;;;;;;;;;;12.10;99.90;;;;;;4994459;28;20457;-72
2021/05/27 02:05:25;;;;;;;;;;;12.20;99.90;;;;;;5010360;28;19995;-71
2021/05/27 02:07:51;;;;;;;;;;;12.30;99.90;;;;;;5010303;28;19917;-72
2021/05/27 02:10:16;;;;;;;;;;;12.10;99.90;;;;;;5010330;28;19913;-72
2021/05/27 02:12:42;;;;;;;;;;;12.20;99.90;;;;;;4992552;28;20000;-72
2021/05/27 02:15:08;;;;;;;;;;;12.30;99.90;;;;;;5009951;28;19905;-72
2021/05/27 02:17:34;;;;;;;;;;;12.30;99.90;;;;;;4995064;28;19911;-73
2021/05/27 02:20:00;;;;;;;;;;;12.50;99.90;;;;;;5010075;28;20385;-72
2021/05/27 02:22:25;;;;;;;;;;;12.30;99.90;;;;;;5010267;28;19913;-72
2021/05/27 02:24:51;;;;;;;;;;;12.30;99.90;;;;;;5009815;28;19909;-72
2021/05/27 02:27:17;;;;;;;;;;;12.30;99.90;;;;;;5010007;28;19913;-72
2021/05/27 02:29:42;;;;;;;;;;;12.20;99.90;;;;;;5011626;28;19996;-70
2021/05/27 02:32:08;;;;;;;;;;;12.20;99.90;;;;;;4992485;28;20218;-71
2021/05/27 02:34:33;;;;;;;;;;;12.30;99.90;;;;;;5009512;28;19913;-72
2021/05/27 02:36:59;;;;;;;;;;;12.30;99.90;;;;;;4992676;28;20427;-72
2021/05/27 02:39:25;;;;;;;;;;;12.30;99.90;;;;;;5009752;28;19917;-71
2021/05/27 02:41:51;;;;;;;;;;;12.20;99.90;;;;;;5011662;28;20304;-72
2021/05/27 02:44:17;;;;;;;;;;;12.30;99.90;;;;;;5009900;28;19914;-72
2021/05/27 02:46:43;;;;;;;;;;;12.10;99.90;;;;;;5009908;28;19924;-72
2021/05/27 02:49:08;;;;;;;;;;;12.10;99.90;;;;;;5009936;28;19917;-72
2021/05/27 02:51:34;;;;;;;;;;;12.20;99.90;;;;;;5009700;28;19914;-71
2021/05/27 02:53:59;;;;;;;;;;;12.30;99.90;;;;;;5011461;28;19905;-71
2021/05/27 02:56:25;;;;;;;;;;;12.20;99.90;;;;;;5009948;28;19917;-71
2021/05/27 02:58:50;;;;;;;;;;;12.30;99.90;;;;;;4992145;28;20358;-71
2021/05/27 03:01:16;;;;;;;;;;;12.30;99.90;;;;;;5010078;28;19910;-71
2021/05/27 03:03:41;;;;;;;;;;;12.30;99.90;;;;;;5009889;28;19995;-72
2021/05/27 03:06:07;;;;;;;;;;;12.30;99.90;;;;;;5009657;28;19909;-72
2021/05/27 03:08:33;;;;;;;;;;;12.20;99.90;;;;;;5011290;28;19897;-71
2021/05/27 03:10:58;;;;;;;;;;;12.20;99.90;;;;;;5009698;28;19936;-71
2021/05/27 03:13:24;;;;;;;;;;;12.10;99.90;;;;;;4992130;28;19910;-72
2021/05/27 03:15:50;;;;;;;;;;;12.20;99.90;;;;;;5009191;28;20236;-71
2021/05/27 03:18:17;;;;;;;;;;;12.20;99.90;;;;;;4991867;28;19917;-72
2021/05/27 03:20:42;;;;;;;;;;;12.20;99.90;;;;;;5010963;28;19931;-72
2021/05/27 03:23:08;;;;;;;;;;;12.20;99.90;;;;;;5009632;28;19910;-72
2021/05/27 03:25:34;;;;;;;;;;;12.30;99.90;;;;;;5009621;28;19920;-72
2021/05/27 03:27:59;;;;;;;;;;;12.30;99.90;;;;;;5009532;28;19952;-72
2021/05/27 03:30:25;;;;;;;;;;;12.30;99.90;;;;;;5009307;28;20012;-73
2021/05/27 03:32:51;;;;;;;;;;;12.10;99.90;;;;;;5011163;28;19920;-71
2021/05/27 03:35:17;;;;;;;;;;;12.20;99.90;;;;;;5009308;28;19924;-72
2021/05/27 03:37:42;;;;;;;;;;;12.10;99.90;;;;;;4994749;28;19964;-72
2021/05/27 03:42:38;;;;;;;;;;;12.10;99.90;;;;;;5013137;28;20387;-72
2021/05/27 03:45:05;;;;;;;;;;;12.10;99.90;;;;;;5014635;28;19906;-72
2021/05/27 03:47:30;;;;;;;;;;;12.00;99.90;;;;;;5013198;28;19909;-73
2021/05/27 03:49:56;;;;;;;;;;;12.00;99.90;;;;;;4995580;28;19909;-72
2021/05/27 03:52:22;;;;;;;;;;;12.10;99.90;;;;;;5012553;28;20251;-72
2021/05/27 03:54:47;;;;;;;;;;;12.10;99.90;;;;;;5012788;28;20385;-72
2021/05/27 03:57:12;;;;;;;;;;;12.10;99.90;;;;;;5012778;28;20398;-72
2021/05/27 04:02:22;;;;;;;;;;;12.10;99.90;;;;;;5012737;28;19924;-70
2021/05/27 04:07:32;;;;;;;;;;;12.00;99.90;;;;;;5012825;28;19920;-70
2021/05/27 04:09:57;;;;;;;;;;;12.10;99.90;;;;;;5012306;28;19910;-71
2021/05/27 04:15:20;;;;;;;;;;;12.10;99.90;;;;;;5012344;28;20326;-72
2021/05/27 04:17:46;;;;;;;;;;;12.00;99.90;;;;;;5013943;28;19905;-72
2021/05/27 04:20:12;;;;;;;;;;;11.90;99.90;;;;;;5011955;28;19925;-72
2021/05/27 04:22:42;;;;;;;;;;;12.00;99.90;;;;;;5012408;28;19920;-71
2021/05/27 04:25:07;;;;;;;;;;;12.10;99.90;;;;;;5012317;28;19925;-72
2021/05/27 04:27:33;;;;;;;;;;;12.00;99.90;;;;;;5012046;28;19909;-72
2021/05/27 04:30:13;;;;;;;;;;;12.10;99.90;;;;;;5013687;28;19960;-73
2021/05/27 04:35:27;;;;;;;;;;;12.10;99.90;;;;;;5012000;28;19924;-72
2021/05/27 04:37:53;;;;;;;;;;;12.10;99.90;;;;;;5011841;28;19913;-72
2021/05/27 04:40:19;;;;;;;;;;;12.20;99.90;;;;;;4993810;28;19975;-72
2021/05/27 04:42:45;;;;;;;;;;;12.10;99.90;;;;;;5011605;28;20363;-72
2021/05/27 04:45:10;;;;;;;;;;;12.10;99.90;;;;;;5011717;28;19916;-72
2021/05/27 04:47:36;;;;;;;;;;;12.20;99.90;;;;;;4995469;28;19909;-72
2021/05/27 04:50:02;;;;;;;;;;;12.40;99.90;;;;;;5011928;28;19953;-72
2021/05/27 04:52:28;;;;;;;;;;;12.30;99.90;;;;;;5011602;28;20362;-72
2021/05/27 04:54:53;;;;;;;;;;;12.40;99.90;;;;;;5011785;28;19909;-72
2021/05/27 04:57:19;;;;;;;;;;;12.30;99.90;;;;;;5011675;28;20315;-71
2021/05/27 04:59:44;;;;;;;;;;;12.40;99.90;;;;;;4995722;28;20190;-72
2021/05/27 05:02:10;;;;;;;;;;;12.40;99.90;;;;;;4994077;28;19920;-71
2021/05/27 05:04:35;;;;;;;;;;;12.40;99.90;;;;;;5011461;28;19936;-72
2021/05/27 05:07:01;;;;;;;;;;;12.50;99.90;;;;;;5011444;28;20438;-72
2021/05/27 05:09:27;;;;;;;;;;;12.50;99.90;;;;;;5010833;28;20155;-73
2021/05/27 05:11:53;;;;;;;;;;;12.50;99.90;;;;;;4995453;28;20024;-72
2021/05/27 05:14:18;;;;;;;;;;;12.70;99.90;;;;;;5011478;28;20052;-72
2021/05/27 05:16:44;;;;;;;;;;;12.70;99.80;;;;;;5011010;28;19923;-72
2021/05/27 05:19:09;;;;;;;;;;;12.70;99.90;;;;;;5011006;28;20570;-73
2021/05/27 05:21:35;;;;;;;;;;;12.70;99.70;;;;;;5011136;28;20347;-73
2021/05/27 05:24:00;;;;;;;;;;;12.80;99.60;;;;;;5012625;28;19906;-73
2021/05/27 05:26:26;;;;;;;;;;;12.70;99.60;;;;;;5011032;28;20009;-73
2021/05/27 05:28:51;;;;;;;;;;;12.60;99.50;;;;;;5011100;28;19988;-74
2021/05/27 05:31:17;;;;;;;;;;;12.70;99.40;;;;;;5010903;28;19913;-72
2021/05/27 05:33:42;;;;;;;;;;;12.70;99.20;;;;;;5010770;28;20246;-72
2021/05/27 05:36:08;;;;;;;;;;;12.60;99.50;;;;;;5010730;28;19940;-72
2021/05/27 05:38:34;;;;;;;;;;;12.70;99.30;;;;;;5012373;28;19913;-72
2021/05/27 05:40:59;;;;;;;;;;;12.60;99.40;;;;;;5010463;28;19997;-71
2021/05/27 05:43:25;;;;;;;;;;;12.60;99.40;;;;;;5010539;28;19909;-72
2021/05/27 05:45:50;;;;;;;;;;;12.70;99.40;;;;;;5010567;28;19916;-72
2021/05/27 05:48:16;;;;;;;;;;;12.70;99.20;;;;;;5010574;28;20348;-72
2021/05/27 05:53:14;;;;;;;;;;;12.80;99.10;;;;;;5013128;28;19928;-77
2021/05/27 05:55:40;;;;;;;;;;;12.80;99.10;;;;;;5012908;28;20099;-78
2021/05/27 05:58:06;;;;;;;;;;;12.80;99.10;;;;;;4995615;28;19956;-78
2021/05/27 06:00:32;;;;;;;;;;;12.60;99.60;;;;;;5012383;28;20271;-78
2021/05/27 06:02:57;;;;;;;;;;;12.70;99.60;;;;;;5014815;28;19913;-78
2021/05/27 06:05:23;;;;;;;;;;;12.80;99.60;;;;;;4994516;28;19944;-78
2021/05/27 06:07:49;;;;;;;;;;;12.80;99.80;;;;;;5012334;28;19909;-77
2021/05/27 06:10:14;;;;;;;;;;;12.70;99.90;;;;;;4994514;28;20373;-75
2021/05/27 06:12:40;;;;;;;;;;;12.70;99.90;;;;;;5011023;28;20205;-77
2021/05/27 06:15:06;;;;;;;;;;;12.80;99.90;;;;;;5011684;28;19952;-77
2021/05/27 06:17:32;;;;;;;;;;;12.70;99.90;;;;;;4996338;28;19918;-75
2021/05/27 06:19:57;;;;;;;;;;;12.70;99.90;;;;;;5010743;28;20274;-73
2021/05/27 06:22:23;;;;;;;;;;;12.90;99.90;;;;;;5010485;28;19967;-77
2021/05/27 06:24:48;;;;;;;;;;;12.90;99.90;;;;;;4993893;28;19920;-75
2021/05/27 06:27:14;;;;;;;;;;;13.00;99.90;;;;;;5010843;28;20401;-78
2021/05/27 06:29:39;;;;;;;;;;;13.00;99.60;;;;;;5013700;28;19898;-76
2021/05/27 06:32:05;;;;;;;;;;;12.90;99.60;;;;;;5011281;28;20009;-76
2021/05/27 06:34:30;;;;;;;;;;;13.00;99.60;;;;;;4995222;28;19909;-79
2021/05/27 06:36:56;;;;;;;;;;;12.90;99.80;;;;;;5012026;28;19937;-78
2021/05/27 06:39:21;;;;;;;;;;;12.90;99.70;;;;;;4980716;28;20395;-80
2021/05/27 06:41:47;;;;;;;;;;;12.90;99.60;;;;;;4971896;28;19910;-81
2021/05/27 06:44:12;;;;;;;;;;;13.00;99.70;;;;;;4969922;28;20012;-83
2021/05/27 06:46:39;;;;;;;;;;;12.80;99.90;;;;;;4970375;28;19911;-84
2021/05/27 06:49:05;;;;;;;;;;;12.80;99.90;;;;;;4971246;28;19921;-84
2021/05/27 06:51:31;;;;;;;;;;;12.70;99.90;;;;;;4971367;28;19918;-83
2021/05/27 06:53:57;;;;;;;;;;;12.70;99.90;;;;;;4972019;28;20013;-81
2021/05/27 06:56:22;;;;;;;;;;;12.60;99.90;;;;;;4971297;28;20008;-82
2021/05/27 06:58:48;;;;;;;;;;;12.80;99.90;;;;;;4971632;28;20450;-83
2021/05/27 07:01:14;;;;;;;;;;;12.80;99.90;;;;;;4969881;28;19966;-83
2021/05/27 07:03:39;;;;;;;;;;;12.80;99.90;;;;;;4971424;28;19910;-81
2021/05/27 07:06:06;;;;;;;;;;;12.80;99.90;;;;;;4969989;28;20022;-81
2021/05/27 07:08:36;;;;;;;;;;;12.70;99.90;;;;;;4972478;28;20332;-85
2021/05/27 07:11:01;;;;;;;;;;;12.80;99.90;;;;;;4972793;28;20255;-84
2021/05/27 07:13:27;;;;;;;;;;;12.80;99.90;;;;;;4973559;28;19918;-85
2021/05/27 07:15:52;;;;;;;;;;;12.80;99.90;;;;;;4974247;28;19910;-81
2021/05/27 07:18:18;;;;;;;;;;;12.80;99.90;;;;;;4973290;28;19906;-85
2021/05/27 07:20:44;;;;;;;;;;;12.80;99.90;;;;;;4975555;28;19922;-84
2021/05/27 07:23:10;;;;;;;;;;;12.60;99.90;;;;;;4975032;28;19910;-83
2021/05/27 07:25:36;;;;;;;;;;;12.60;99.90;;;;;;4974326;28;20005;-82
2021/05/27 07:28:02;;;;;;;;;;;12.60;99.90;;;;;;4973417;28;20017;-85
2021/05/27 07:30:28;;;;;;;;;;;12.70;99.90;;;;;;4973253;28;19913;-82
2021/05/27 07:32:54;;;;;;;;;;;12.70;99.90;;;;;;4974979;28;20032;-81
2021/05/27 07:35:20;;;;;;;;;;;12.80;99.90;;;;;;4974603;28;19953;-81
2021/05/27 07:37:46;;;;;;;;;;;12.80;99.90;;;;;;4974610;28;20011;-84
2021/05/27 07:40:11;;;;;;;;;;;12.70;99.90;;;;;;4974860;28;20011;-84
2021/05/27 07:42:37;;;;;;;;;;;12.70;99.90;;;;;;4973924;28;19918;-82
2021/05/27 07:45:04;;;;;;;;;;;12.80;99.90;;;;;;4976087;28;20308;-83
2021/05/27 07:47:32;;;;;;;;;;;12.90;99.90;;;;;;4974369;28;20001;-80
2021/05/27 07:49:59;;;;;;;;;;;13.00;99.90;;;;;;4972792;28;20387;-81
2021/05/27 07:52:25;;;;;;;;;;;13.00;99.90;;;;;;4973220;28;20037;-81
2021/05/27 07:54:52;;;;;;;;;;;13.10;99.90;;;;;;4974421;28;20071;-82
2021/05/27 07:57:18;;;;;;;;;;;13.20;99.90;;;;;;4973954;28;19906;-81
2021/05/27 07:59:43;;;;;;;;;;;13.20;99.90;;;;;;4975842;28;20375;-81
2021/05/27 08:02:09;;;;;;;;;;;13.30;99.90;;;;;;4973801;28;19910;-78
2021/05/27 08:04:35;;;;;;;;;;;13.30;99.90;;;;;;4973930;28;19921;-80
2021/05/27 08:07:00;;;;;;;;;;;13.40;99.90;;;;;;4973334;28;19910;-82
2021/05/27 08:09:26;;;;;;;;;;;13.50;99.90;;;;;;4973187;28;19910;-75
2021/05/27 08:11:51;;;;;;;;;;;13.80;99.80;;;;;;4974756;28;20485;-81
2021/05/27 08:14:17;;;;;;;;;;;13.90;99.50;;;;;;4973197;28;19918;-82
2021/05/27 08:16:42;;;;;;;;;;;13.70;99.20;;;;;;4972348;28;19966;-79
2021/05/27 08:19:08;;;;;;;;;;;13.80;99.50;;;;;;4968857;28;19929;-80
2021/05/27 08:21:33;;;;;;;;;;;13.90;99.20;;;;;;4953952;28;19911;-81
2021/05/27 08:23:59;;;;;;;;;;;13.80;99.00;;;;;;4957205;29;19906;-81
2021/05/27 08:26:25;;;;;;;;;;;13.80;99.20;;;;;;4955215;28;20324;-80
2021/05/27 08:28:52;;;;;;;;;;;13.70;99.10;;;;;;4969538;28;19987;-81
2021/05/27 08:31:18;;;;;;;;;;;13.70;99.30;;;;;;4954248;28;19914;-83
2021/05/27 08:33:44;;;;;;;;;;;13.70;99.30;;;;;;4953577;28;19921;-82
2021/05/27 08:36:10;;;;;;;;;;;13.50;99.70;;;;;;4953445;28;19961;-79
2021/05/27 08:38:36;;;;;;;;;;;13.60;99.80;;;;;;4972358;28;20009;-82
2021/05/27 08:41:02;;;;;;;;;;;13.50;99.80;;;;;;4953945;28;20050;-82
2021/05/27 08:43:28;;;;;;;;;;;13.30;99.90;;;;;;4954223;28;19914;-79
2021/05/27 08:45:54;;;;;;;;;;;13.30;99.90;;;;;;4954367;28;19914;-79
2021/05/27 08:48:20;;;;;;;;;;;13.40;99.90;;;;;;4953744;28;19937;-79
2021/05/27 08:50:47;;;;;;;;;;;13.40;99.90;;;;;;4955441;29;19909;-81
2021/05/27 08:53:18;;;;;;;;;;;13.40;99.90;;;;;;4968109;28;19918;-79
2021/05/27 08:55:44;;;;;;;;;;;13.40;99.90;;;;;;4968077;28;20013;-80
2021/05/27 08:58:10;;;;;;;;;;;13.30;99.90;;;;;;4953158;28;19911;-81
2021/05/27 09:00:36;;;;;;;;;;;13.30;99.90;;;;;;4968322;28;19989;-77
2021/05/27 09:03:03;;;;;;;;;;;13.30;99.90;;;;;;4954016;28;20309;-79
2021/05/27 09:05:33;;;;;;;;;;;13.30;99.90;;;;;;4968410;28;19914;-81
2021/05/27 09:07:59;;;;;;;;;;;13.20;99.90;;;;;;4953145;28;20347;-81
2021/05/27 09:10:40;;;;;;;;;;;13.30;99.90;;;;;;4968220;28;20001;-81
2021/05/27 09:13:13;;;;;;;;;;;13.30;99.90;;;;;;4953022;28;20282;-84
2021/05/27 09:15:39;;;;;;;;;;;13.30;99.90;;;;;;4967974;28;19959;-80
2021/05/27 09:18:04;;;;;;;;;;;13.40;99.90;;;;;;4969853;28;19906;-79
2021/05/27 09:20:31;;;;;;;;;;;13.40;99.90;;;;;;4967899;28;19944;-83
2021/05/27 09:23:07;;;;;;;;;;;13.40;99.90;;;;;;4972500;28;19933;-82
2021/05/27 09:25:36;;;;;;;;;;;13.40;99.90;;;;;;4954830;28;19914;-80
2021/05/27 09:28:02;;;;;;;;;;;13.30;99.90;;;;;;4971990;28;19978;-82
2021/05/27 09:30:27;;;;;;;;;;;13.30;99.90;;;;;;4972495;28;19922;-80
2021/05/27 09:32:53;;;;;;;;;;;13.40;99.90;;;;;;4973685;28;20325;-80
2021/05/27 09:35:19;;;;;;;;;;;13.60;99.90;;;;;;4953990;28;19910;-84
2021/05/27 09:37:46;;;;;;;;;;;14.00;99.90;;;;;;4971959;28;19964;-83
2021/05/27 09:40:26;;;;;;;;;;;14.20;99.90;;;;;;4971973;28;19941;-82
2021/05/27 09:42:52;;;;;;;;;;;14.70;99.90;;;;;;4972211;28;20324;-83
2021/05/27 09:45:18;;;;;;;;;;;15.00;99.30;;;;;;4971628;28;19906;-77
2021/05/27 09:47:44;;;;;;;;;;;15.10;99.10;;;;;;4973395;28;19906;-85
2021/05/27 09:50:09;;;;;;;;;;;14.90;98.30;;;;;;4972353;28;20019;-88
2021/05/27 09:52:45;;;;;;;;;;;15.00;98.60;;;;;;4971345;28;19914;-83
2021/05/27 09:55:14;;;;;;;;;;;15.20;98.50;;;;;;4971891;28;19909;-82
2021/05/27 09:57:41;;;;;;;;;;;15.20;98.30;;;;;;4972231;28;19910;-84
2021/05/27 10:00:06;;;;;;;;;;;15.30;98.10;;;;;;4971702;28;19910;-86
2021/05/27 10:02:35;;;;;;;;;;;15.50;98.10;;;;;;4972876;28;20328;-91
2021/05/27 10:05:05;;;;;;;;;;;14.90;97.60;;;;;;4971533;28;19910;-84
2021/05/27 10:07:38;;;;;;;;;;;14.60;98.30;;;;;;4972512;28;19910;-82
2021/05/27 10:10:05;;;;;;;;;;;14.80;98.70;;;;;;4971927;28;19910;-82
2021/05/27 10:12:34;;;;;;;;;;;14.90;98.90;;;;;;4970263;28;20310;-81
2021/05/27 10:14:59;;;;;;;;;;;14.60;98.30;;;;;;4973495;28;19906;-86
2021/05/27 10:17:26;;;;;;;;;;;15.00;98.80;;;;;;4971807;28;20300;-86
2021/05/27 10:19:53;;;;;;;;;;;15.40;98.20;;;;;;4971466;28;19922;-83
2021/05/27 10:22:18;;;;;;;;;;;15.70;98.50;;;;;;4970333;28;19917;-82
2021/05/27 10:24:44;;;;;;;;;;;15.80;97.30;;;;;;4971205;28;19910;-76
2021/05/27 10:27:10;;;;;;;;;;;16.00;97.80;;;;;;4969944;28;20602;-78
2021/05/27 10:29:35;;;;;;;;;;;16.20;97.60;;;;;;4971651;28;19941;-77
2021/05/27 10:32:02;;;;;;;;;;;16.40;97.10;;;;;;4970642;28;19921;-77
2021/05/27 10:34:45;;;;;;;;;;;16.50;96.80;;;;;;4970919;28;19914;-77
2021/05/27 10:37:11;;;;;;;;;;;16.40;96.00;;;;;;4970879;28;20344;-77
2021/05/27 10:39:37;;;;;;;;;;;16.60;96.00;;;;;;4971060;28;19910;-76
2021/05/27 10:42:03;;;;;;;;;;;16.70;95.80;;;;;;4971323;28;19906;-75
2021/05/27 10:44:29;;;;;;;;;;;16.70;95.30;;;;;;4970706;28;19910;-76
2021/05/27 10:46:54;;;;;;;;;;;16.70;95.40;;;;;;4970375;28;19910;-77
2021/05/27 10:49:38;;;;;;;;;;;17.00;95.40;;;;;;4953480;28;19914;-75
2021/05/27 10:52:22;;;;;;;;;;;16.80;94.70;;;;;;4970510;28;19914;-77
2021/05/27 10:54:48;;;;;;;;;;;16.50;94.40;;;;;;4970648;28;19914;-75
2021/05/27 10:57:33;;;;;;;;;;;16.20;94.40;;;;;;4970899;28;20004;-76
2021/05/27 10:59:59;;;;;;;;;;;16.10;94.80;;;;;;4972313;28;19914;-78
2021/05/27 11:02:24;;;;;;;;;;;15.90;95.10;;;;;;4969575;28;19931;-77
2021/05/27 11:05:10;;;;;;;;;;;15.90;95.40;;;;;;4970802;28;20002;-78
2021/05/27 11:07:35;;;;;;;;;;;15.80;95.60;;;;;;4970775;28;19910;-77
2021/05/27 11:10:01;;;;;;;;;;;15.50;95.60;;;;;;4970615;28;20344;-80
2021/05/27 11:12:28;;;;;;;;;;;15.70;95.70;;;;;;4970634;28;19953;-80
2021/05/27 11:14:53;;;;;;;;;;;15.90;95.40;;;;;;4972839;28;20173;-78
2021/05/27 11:17:21;;;;;;;;;;;16.00;95.20;;;;;;4971008;28;19921;-78
2021/05/27 11:22:45;;;;;;;;;;;15.80;95.70;;;;;;4971681;28;19932;-75
2021/05/27 11:27:46;;;;;;;;;;;15.40;96.20;;;;;;4971479;28;19918;-79
2021/05/27 11:30:32;;;;;;;;;;;15.10;96.60;;;;;;4970917;28;20524;-82
2021/05/27 11:32:59;;;;;;;;;;;15.20;96.70;;;;;;4962654;28;19910;-79
2021/05/27 11:35:26;;;;;;;;;;;14.90;96.80;;;;;;4971036;28;19976;-79
2021/05/27 11:37:52;;;;;;;;;;;15.20;96.40;;;;;;4970943;28;20355;-78
2021/05/27 11:40:20;;;;;;;;;;;15.40;96.30;;;;;;4970762;28;19914;-80
2021/05/27 11:42:49;;;;;;;;;;;15.50;95.90;;;;;;4969723;28;19937;-79
2021/05/27 11:45:15;;;;;;;;;;;15.80;95.60;;;;;;4971044;28;20432;-81
2021/05/27 11:47:41;;;;;;;;;;;15.90;95.40;;;;;;4971125;28;19927;-80
2021/05/27 11:50:10;;;;;;;;;;;15.70;95.20;;;;;;4969895;28;19914;-80
2021/05/27 11:52:37;;;;;;;;;;;15.80;95.00;;;;;;4970709;28;19969;-78
2021/05/27 11:55:03;;;;;;;;;;;15.80;94.70;;;;;;4970630;28;19985;-82
2021/05/27 11:57:44;;;;;;;;;;;15.90;94.80;;;;;;4971464;28;20000;-80
2021/05/27 12:00:14;;;;;;;;;;;15.90;94.40;;;;;;4974458;28;20240;-81
2021/05/27 12:03:00;;;;;;;;;;;15.90;94.40;;;;;;4974705;28;19930;-81
2021/05/27 12:05:35;;;;;;;;;;;15.70;94.00;;;;;;4973505;28;20008;-80
2021/05/27 12:08:02;;;;;;;;;;;15.90;94.40;;;;;;4973806;28;20324;-77
2021/05/27 12:10:29;;;;;;;;;;;16.00;94.10;;;;;;4973659;28;19914;-78
2021/05/27 12:12:55;;;;;;;;;;;16.00;94.40;;;;;;4973582;28;19914;-77
2021/05/27 12:15:22;;;;;;;;;;;16.00;94.40;;;;;;4973909;28;19933;-78
2021/05/27 12:17:52;;;;;;;;;;;15.90;94.40;;;;;;4975470;28;19917;-78
2021/05/27 12:20:32;;;;;;;;;;;15.90;94.20;;;;;;4973341;28;20440;-79
2021/05/27 12:23:00;;;;;;;;;;;15.80;94.20;;;;;;4973530;28;20022;-78
2021/05/27 12:25:29;;;;;;;;;;;15.80;94.50;;;;;;4973517;28;20012;-80
2021/05/27 12:27:58;;;;;;;;;;;15.80;94.50;;;;;;4973471;28;20478;-75
2021/05/27 12:30:26;;;;;;;;;;;15.70;94.80;;;;;;4973248;28;19906;-80
2021/05/27 12:32:53;;;;;;;;;;;15.30;97.20;;;;;;4975075;28;20000;-80
2021/05/27 12:35:26;;;;;;;;;;;15.20;97.40;;;;;;4973034;28;19953;-80
2021/05/27 12:37:55;;;;;;;;;;;15.30;98.00;;;;;;4973368;28;19910;-79
2021/05/27 12:40:26;;;;;;;;;;;15.10;98.20;;;;;;4972950;28;19972;-78
2021/05/27 12:42:53;;;;;;;;;;;15.00;98.20;;;;;;4973291;28;19920;-79
2021/05/27 12:45:22;;;;;;;;;;;15.30;99.00;;;;;;4973112;28;19917;-80
2021/05/27 12:48:07;;;;;;;;;;;15.40;99.10;;;;;;4974761;28;19917;-77
2021/05/27 12:50:37;;;;;;;;;;;15.50;99.30;;;;;;4973401;28;19926;-80
2021/05/27 12:53:03;;;;;;;;;;;15.70;98.70;;;;;;4973228;28;19918;-80
2021/05/27 12:55:31;;;;;;;;;;;15.90;99.20;;;;;;4972775;28;19910;-79
2021/05/27 12:58:00;;;;;;;;;;;15.80;98.20;;;;;;4973483;28;19914;-81
2021/05/27 13:00:26;;;;;;;;;;;15.90;97.90;;;;;;4973023;28;19925;-80
2021/05/27 13:03:06;;;;;;;;;;;16.00;97.40;;;;;;4974824;28;19993;-80
2021/05/27 13:05:32;;;;;;;;;;;16.10;97.00;;;;;;4973575;28;19910;-79
2021/05/27 13:07:58;;;;;;;;;;;16.10;96.90;;;;;;4972524;28;20311;-79
2021/05/27 13:10:28;;;;;;;;;;;16.20;97.00;;;;;;4972952;28;19910;-78
2021/05/27 13:12:53;;;;;;;;;;;16.30;97.50;;;;;;4974121;28;20012;-78
2021/05/27 13:15:19;;;;;;;;;;;16.20;97.00;;;;;;4973017;28;19985;-82
2021/05/27 13:18:00;;;;;;;;;;;16.10;97.50;;;;;;4974809;28;20371;-79
2021/05/27 13:20:25;;;;;;;;;;;16.40;97.20;;;;;;4971146;28;19922;-78
2021/05/27 13:22:51;;;;;;;;;;;16.50;97.00;;;;;;4972662;28;19910;-80
2021/05/27 13:25:16;;;;;;;;;;;16.40;96.30;;;;;;4972453;28;19973;-80
2021/05/27 13:27:50;;;;;;;;;;;16.30;96.20;;;;;;4972326;28;19914;-80
2021/05/27 13:30:23;;;;;;;;;;;16.20;95.90;;;;;;4972438;28;19913;-81
2021/05/27 13:32:49;;;;;;;;;;;16.20;95.90;;;;;;4956917;28;19910;-77
2021/05/27 13:35:14;;;;;;;;;;;16.30;95.90;;;;;;4972331;28;19978;-77
2021/05/27 13:37:42;;;;;;;;;;;16.30;95.90;;;;;;4972262;28;19984;-83
2021/05/27 13:40:10;;;;;;;;;;;16.20;95.40;;;;;;4971715;28;19957;-84
2021/05/27 13:42:35;;;;;;;;;;;16.30;95.70;;;;;;4972433;28;19910;-75
2021/05/27 13:45:01;;;;;;;;;;;16.30;95.70;;;;;;4973920;28;19906;-80
2021/05/27 13:47:26;;;;;;;;;;;16.20;95.70;;;;;;4972894;28;20375;-80
2021/05/27 13:49:52;;;;;;;;;;;16.10;96.20;;;;;;4973681;28;19914;-82
2021/05/27 13:52:18;;;;;;;;;;;16.00;96.20;;;;;;4975190;28;19922;-79
2021/05/27 13:54:48;;;;;;;;;;;16.00;96.60;;;;;;4991754;28;20080;-79
2021/05/27 13:57:13;;;;;;;;;;;15.90;96.40;;;;;;4991734;28;19905;-80
2021/05/27 13:59:39;;;;;;;;;;;15.90;96.60;;;;;;4975954;28;19906;-81
2021/05/27 14:02:05;;;;;;;;;;;16.00;96.70;;;;;;4991358;28;20576;-79
2021/05/27 14:04:32;;;;;;;;;;;16.00;96.70;;;;;;4991659;28;19909;-83
2021/05/27 14:06:58;;;;;;;;;;;15.90;96.50;;;;;;4973231;28;19924;-79
2021/05/27 14:09:23;;;;;;;;;;;16.00;96.40;;;;;;4991763;28;19910;-82
2021/05/27 14:11:49;;;;;;;;;;;16.00;96.50;;;;;;4975678;28;19918;-79
2021/05/27 14:14:14;;;;;;;;;;;15.90;96.70;;;;;;4992330;28;19914;-81
2021/05/27 14:16:40;;;;;;;;;;;15.90;96.70;;;;;;4973607;28;20045;-82
2021/05/27 14:19:06;;;;;;;;;;;16.10;96.50;;;;;;4991599;28;19918;-81
2021/05/27 14:21:31;;;;;;;;;;;15.90;95.80;;;;;;4976620;28;20331;-79
2021/05/27 14:23:57;;;;;;;;;;;16.00;95.90;;;;;;4978814;28;19914;-81